sensor_id;sensor_type;location;lat;lon;timestamp;pressure;altitude;pressure_sealevel;temperature;humidity
54146;BME280;65909;49.422;7.738;2023-03-31T00:01:02;75567.41;;;-145.25;84.42
54146;BME280;65909;49.422;7.738;2023-03-31T00:03:28;75567.41;;;-145.25;84.48
54146;BME280;65909;49.422;7.738;2023-03-31T00:05:55;75587.47;;;-145.25;84.72
54146;BME280;65909;49.422;7.738;2023-03-31T00:08:22;75569.41;;;-145.25;85.48
54146;BME280;65909;49.422;7.738;2023-03-31T00:10:47;75579.44;;;-145.25;84.57
54146;BME280;65909;49.422;7.738;2023-03-31T00:13:13;75583.44;;;-145.25;85.82
54146;BME280;65909;49.422;7.738;2023-03-31T00:15:38;75591.47;;;-145.25;85.89
54146;BME280;65909;49.422;7.738;2023-03-31T00:18:04;75593.47;;;-145.25;86.31
54146;BME280;65909;49.422;7.738;2023-03-31T00:20:30;75595.47;;;-145.25;86.81
54146;BME280;65909;49.422;7.738;2023-03-31T00:22:58;75579.44;;;-145.25;87.62
54146;BME280;65909;49.422;7.738;2023-03-31T00:25:26;75565.41;;;-145.25;87.00
54146;BME280;65909;49.422;7.738;2023-03-31T00:27:51;75589.47;;;-145.25;86.94
54146;BME280;65909;49.422;7.738;2023-03-31T00:30:17;75599.50;;;-145.25;87.68
54146;BME280;65909;49.422;7.738;2023-03-31T00:32:42;75603.50;;;-145.25;88.56
54146;BME280;65909;49.422;7.738;2023-03-31T00:35:08;75595.47;;;-145.25;90.26
54146;BME280;65909;49.422;7.738;2023-03-31T00:37:34;75567.41;;;-145.25;90.08
54146;BME280;65909;49.422;7.738;2023-03-31T00:40:00;75587.47;;;-145.25;89.66
54146;BME280;65909;49.422;7.738;2023-03-31T00:42:26;75587.47;;;-145.25;90.50
54146;BME280;65909;49.422;7.738;2023-03-31T00:47:47;75599.50;;;-145.25;92.50
54146;BME280;65909;49.422;7.738;2023-03-31T00:50:22;75593.47;;;-145.25;92.58
54146;BME280;65909;49.422;7.738;2023-03-31T00:52:54;75591.47;;;-145.25;92.81
54146;BME280;65909;49.422;7.738;2023-03-31T00:55:26;75593.47;;;-145.25;92.94
54146;BME280;65909;49.422;7.738;2023-03-31T00:57:53;75577.44;;;-145.25;93.46
54146;BME280;65909;49.422;7.738;2023-03-31T01:00:20;75585.47;;;-145.25;92.37
54146;BME280;65909;49.422;7.738;2023-03-31T01:02:52;75581.44;;;-145.25;92.74
54146;BME280;65909;49.422;7.738;2023-03-31T01:05:25;75547.38;;;-145.25;93.44
54146;BME280;65909;49.422;7.738;2023-03-31T01:07:52;75503.28;;;-145.25;92.82
54146;BME280;65909;49.422;7.738;2023-03-31T01:10:18;75495.25;;;-145.25;92.20
54146;BME280;65909;49.422;7.738;2023-03-31T01:12:53;75505.28;;;-145.25;91.12
54146;BME280;65909;49.422;7.738;2023-03-31T01:15:19;75507.28;;;-145.25;90.91
54146;BME280;65909;49.422;7.738;2023-03-31T01:17:45;75525.31;;;-145.25;91.36
54146;BME280;65909;49.422;7.738;2023-03-31T01:20:34;75541.34;;;-145.25;92.06
54146;BME280;65909;49.422;7.738;2023-03-31T01:23:13;75553.38;;;-145.25;92.44
54146;BME280;65909;49.422;7.738;2023-03-31T01:25:53;75549.38;;;-145.25;92.89
54146;BME280;65909;49.422;7.738;2023-03-31T01:28:39;75553.38;;;-145.25;93.34
54146;BME280;65909;49.422;7.738;2023-03-31T01:42:13;75563.41;;;-145.25;94.41
54146;BME280;65909;49.422;7.738;2023-03-31T01:45:06;75555.38;;;-145.25;94.71
54146;BME280;65909;49.422;7.738;2023-03-31T01:47:41;75545.38;;;-145.25;93.84
54146;BME280;65909;49.422;7.738;2023-03-31T01:52:47;75537.34;;;-145.25;92.76
54146;BME280;65909;49.422;7.738;2023-03-31T01:55:21;75543.38;;;-145.25;93.58
54146;BME280;65909;49.422;7.738;2023-03-31T01:57:53;75529.34;;;-145.25;93.35
54146;BME280;65909;49.422;7.738;2023-03-31T02:00:27;75539.34;;;-145.25;93.43
54146;BME280;65909;49.422;7.738;2023-03-31T02:03:04;75521.31;;;-145.25;93.49
54146;BME280;65909;49.422;7.738;2023-03-31T02:05:34;75531.34;;;-145.25;93.54
54146;BME280;65909;49.422;7.738;2023-03-31T02:08:12;75533.34;;;-145.25;93.84
54146;BME280;65909;49.422;7.738;2023-03-31T02:10:41;75523.31;;;-145.25;94.02
54146;BME280;65909;49.422;7.738;2023-03-31T02:13:09;75513.28;;;-145.25;93.70
54146;BME280;65909;49.422;7.738;2023-03-31T02:15:38;75501.28;;;-145.25;93.74
54146;BME280;65909;49.422;7.738;2023-03-31T02:18:06;75485.25;;;-145.25;93.51
54146;BME280;65909;49.422;7.738;2023-03-31T02:20:37;75477.22;;;-145.25;92.98
54146;BME280;65909;49.422;7.738;2023-03-31T02:23:06;75443.16;;;-145.25;92.33
54146;BME280;65909;49.422;7.738;2023-03-31T02:25:37;75427.09;;;-145.25;91.15
54146;BME280;65909;49.422;7.738;2023-03-31T02:28:09;75407.06;;;-145.25;90.33
54146;BME280;65909;49.422;7.738;2023-03-31T02:30:55;75429.13;;;-145.25;90.45
54146;BME280;65909;49.422;7.738;2023-03-31T02:33:24;75429.13;;;-145.25;90.69
54146;BME280;65909;49.422;7.738;2023-03-31T02:35:49;75441.13;;;-145.25;91.41
54146;BME280;65909;49.422;7.738;2023-03-31T02:38:16;75443.16;;;-145.25;91.53
54146;BME280;65909;49.422;7.738;2023-03-31T02:40:41;75455.16;;;-145.25;91.94
54146;BME280;65909;49.422;7.738;2023-03-31T02:43:07;75471.22;;;-145.25;92.19
54146;BME280;65909;49.422;7.738;2023-03-31T02:48:07;75471.22;;;-145.25;92.82
54146;BME280;65909;49.422;7.738;2023-03-31T02:50:53;75475.22;;;-145.25;93.32
54146;BME280;65909;49.422;7.738;2023-03-31T02:59:16;75477.22;;;-145.25;93.29
54146;BME280;65909;49.422;7.738;2023-03-31T03:02:03;75469.19;;;-145.25;93.66
54146;BME280;65909;49.422;7.738;2023-03-31T03:04:41;75475.22;;;-145.25;94.07
54146;BME280;65909;49.422;7.738;2023-03-31T03:07:27;75465.19;;;-145.25;94.75
54146;BME280;65909;49.422;7.738;2023-03-31T03:10:03;75467.19;;;-145.25;95.36
54146;BME280;65909;49.422;7.738;2023-03-31T03:12:39;75465.19;;;-145.25;95.51
54146;BME280;65909;49.422;7.738;2023-03-31T03:15:12;75461.19;;;-145.25;95.93
54146;BME280;65909;49.422;7.738;2023-03-31T03:17:42;75459.19;;;-145.25;95.80
54146;BME280;65909;49.422;7.738;2023-03-31T03:20:10;75443.16;;;-145.25;96.64
54146;BME280;65909;49.422;7.738;2023-03-31T03:22:36;75421.09;;;-145.25;96.30
54146;BME280;65909;49.422;7.738;2023-03-31T03:25:04;75415.09;;;-145.25;96.48
54146;BME280;65909;49.422;7.738;2023-03-31T03:27:30;75405.06;;;-145.25;96.18
54146;BME280;65909;49.422;7.738;2023-03-31T03:29:55;75387.03;;;-145.25;96.76
54146;BME280;65909;49.422;7.738;2023-03-31T03:32:20;75371.00;;;-145.25;96.62
54146;BME280;65909;49.422;7.738;2023-03-31T03:34:46;75366.97;;;-145.25;96.47
54146;BME280;65909;49.422;7.738;2023-03-31T03:37:11;75356.97;;;-145.25;97.18
54146;BME280;65909;49.422;7.738;2023-03-31T03:39:36;75358.97;;;-145.25;96.62
54146;BME280;65909;49.422;7.738;2023-03-31T03:42:02;75383.00;;;-145.25;96.10
54146;BME280;65909;49.422;7.738;2023-03-31T03:44:27;75393.03;;;-145.25;96.12
54146;BME280;65909;49.422;7.738;2023-03-31T03:46:53;75405.06;;;-145.25;95.72
54146;BME280;65909;49.422;7.738;2023-03-31T03:49:19;75385.03;;;-145.25;95.46
54146;BME280;65909;49.422;7.738;2023-03-31T03:51:44;75387.03;;;-145.25;95.89
54146;BME280;65909;49.422;7.738;2023-03-31T03:54:10;75385.03;;;-145.25;95.21
54146;BME280;65909;49.422;7.738;2023-03-31T03:56:35;75375.00;;;-145.25;94.64
54146;BME280;65909;49.422;7.738;2023-03-31T03:59:01;75375.00;;;-145.25;93.99
54146;BME280;65909;49.422;7.738;2023-03-31T04:01:26;75371.00;;;-145.25;93.66
54146;BME280;65909;49.422;7.738;2023-03-31T04:03:51;75366.97;;;-145.25;93.34
54146;BME280;65909;49.422;7.738;2023-03-31T04:06:17;75358.97;;;-145.25;93.62
54146;BME280;65909;49.422;7.738;2023-03-31T04:08:42;75362.97;;;-145.25;93.12
54146;BME280;65909;49.422;7.738;2023-03-31T04:11:13;75334.91;;;-145.25;94.00
54146;BME280;65909;49.422;7.738;2023-03-31T04:13:39;75334.91;;;-145.25;93.24
54146;BME280;65909;49.422;7.738;2023-03-31T04:16:05;75334.91;;;-145.25;93.82
54146;BME280;65909;49.422;7.738;2023-03-31T04:18:31;75334.91;;;-145.25;93.81
54146;BME280;65909;49.422;7.738;2023-03-31T04:20:56;75326.91;;;-145.25;93.65
54146;BME280;65909;49.422;7.738;2023-03-31T04:23:32;75328.91;;;-145.25;94.02
54146;BME280;65909;49.422;7.738;2023-03-31T04:25:57;75334.91;;;-145.25;94.05
54146;BME280;65909;49.422;7.738;2023-03-31T04:28:23;75320.88;;;-145.25;94.14
54146;BME280;65909;49.422;7.738;2023-03-31T04:30:53;75310.88;;;-145.25;93.50
54146;BME280;65909;49.422;7.738;2023-03-31T04:33:19;75282.81;;;-145.25;94.41
54146;BME280;65909;49.422;7.738;2023-03-31T04:35:45;75300.84;;;-145.25;94.09
54146;BME280;65909;49.422;7.738;2023-03-31T04:38:18;75304.84;;;-145.25;93.84
54146;BME280;65909;49.422;7.738;2023-03-31T04:40:49;75308.84;;;-145.25;94.06
54146;BME280;65909;49.422;7.738;2023-03-31T04:43:16;75318.88;;;-145.25;94.02
54146;BME280;65909;49.422;7.738;2023-03-31T04:45:42;75292.81;;;-145.25;95.02
54146;BME280;65909;49.422;7.738;2023-03-31T04:48:08;75276.78;;;-145.25;94.73
54146;BME280;65909;49.422;7.738;2023-03-31T04:50:33;75286.81;;;-145.25;93.72
54146;BME280;65909;49.422;7.738;2023-03-31T04:52:59;75278.78;;;-145.25;93.61
54146;BME280;65909;49.422;7.738;2023-03-31T04:55:25;75280.78;;;-145.25;93.08
54146;BME280;65909;49.422;7.738;2023-03-31T04:57:51;75284.81;;;-145.25;93.38
54146;BME280;65909;49.422;7.738;2023-03-31T05:00:17;75282.81;;;-145.25;92.92
54146;BME280;65909;49.422;7.738;2023-03-31T05:02:42;75264.75;;;-145.25;92.97
54146;BME280;65909;49.422;7.738;2023-03-31T05:05:08;75262.75;;;-145.25;92.64
54146;BME280;65909;49.422;7.738;2023-03-31T05:07:34;75248.72;;;-145.25;93.39
54146;BME280;65909;49.422;7.738;2023-03-31T05:10:00;75222.69;;;-145.25;93.39
54146;BME280;65909;49.422;7.738;2023-03-31T05:12:25;75216.66;;;-145.25;92.94
54146;BME280;65909;49.422;7.738;2023-03-31T05:14:50;75224.69;;;-145.25;92.29
54146;BME280;65909;49.422;7.738;2023-03-31T05:17:16;75202.63;;;-145.25;93.06
54146;BME280;65909;49.422;7.738;2023-03-31T05:19:42;75226.69;;;-145.25;92.68
54146;BME280;65909;49.422;7.738;2023-03-31T05:22:07;75252.75;;;-145.25;93.57
54146;BME280;65909;49.422;7.738;2023-03-31T05:24:33;75258.75;;;-145.25;93.57
54146;BME280;65909;49.422;7.738;2023-03-31T05:26:58;75268.78;;;-145.25;94.01
54146;BME280;65909;49.422;7.738;2023-03-31T05:29:24;75246.72;;;-145.25;93.84
54146;BME280;65909;49.422;7.738;2023-03-31T05:31:49;75266.78;;;-145.25;94.24
54146;BME280;65909;49.422;7.738;2023-03-31T05:34:15;75278.78;;;-145.25;95.13
54146;BME280;65909;49.422;7.738;2023-03-31T05:36:41;75282.81;;;-145.25;96.28
54146;BME280;65909;49.422;7.738;2023-03-31T05:39:08;75280.78;;;-145.25;96.47
54146;BME280;65909;49.422;7.738;2023-03-31T05:41:33;75270.78;;;-145.25;96.97
54146;BME280;65909;49.422;7.738;2023-03-31T05:43:59;75272.78;;;-145.25;97.27
54146;BME280;65909;49.422;7.738;2023-03-31T05:46:26;75280.78;;;-145.25;97.36
54146;BME280;65909;49.422;7.738;2023-03-31T05:48:51;75286.81;;;-145.25;97.27
54146;BME280;65909;49.422;7.738;2023-03-31T05:51:17;75286.81;;;-145.25;97.05
54146;BME280;65909;49.422;7.738;2023-03-31T05:53:42;75280.78;;;-145.25;97.62
54146;BME280;65909;49.422;7.738;2023-03-31T05:56:08;75274.78;;;-145.25;98.24
54146;BME280;65909;49.422;7.738;2023-03-31T05:58:34;75262.75;;;-145.25;98.40
54146;BME280;65909;49.422;7.738;2023-03-31T06:01:06;75258.75;;;-145.25;98.28
54146;BME280;65909;49.422;7.738;2023-03-31T06:03:33;75266.78;;;-145.25;98.12
54146;BME280;65909;49.422;7.738;2023-03-31T06:05:58;75258.75;;;-145.25;98.64
54146;BME280;65909;49.422;7.738;2023-03-31T06:08:23;75266.78;;;-145.25;99.52
54146;BME280;65909;49.422;7.738;2023-03-31T06:10:49;75262.75;;;-145.25;100.00
54146;BME280;65909;49.422;7.738;2023-03-31T06:13:15;75252.75;;;-145.25;100.00
54146;BME280;65909;49.422;7.738;2023-03-31T06:15:41;75258.75;;;-145.25;100.00
54146;BME280;65909;49.422;7.738;2023-03-31T06:18:06;75252.75;;;-145.25;100.00
54146;BME280;65909;49.422;7.738;2023-03-31T06:20:35;75242.72;;;-145.25;100.00
54146;BME280;65909;49.422;7.738;2023-03-31T06:23:00;75252.75;;;-145.25;100.00
54146;BME280;65909;49.422;7.738;2023-03-31T06:25:26;75236.69;;;-145.25;100.00
54146;BME280;65909;49.422;7.738;2023-03-31T06:27:52;75222.69;;;-145.25;100.00
54146;BME280;65909;49.422;7.738;2023-03-31T06:30:17;75224.69;;;-145.25;100.00
54146;BME280;65909;49.422;7.738;2023-03-31T06:32:42;75236.69;;;-145.25;100.00
54146;BME280;65909;49.422;7.738;2023-03-31T06:35:08;75226.69;;;-145.25;100.00
54146;BME280;65909;49.422;7.738;2023-03-31T06:37:33;75202.63;;;-145.25;100.00
54146;BME280;65909;49.422;7.738;2023-03-31T06:39:59;75182.59;;;-145.25;100.00
54146;BME280;65909;49.422;7.738;2023-03-31T06:42:24;75194.63;;;-145.25;100.00
54146;BME280;65909;49.422;7.738;2023-03-31T06:44:50;75182.59;;;-145.25;100.00
54146;BME280;65909;49.422;7.738;2023-03-31T06:47:15;75194.63;;;-145.25;100.00
54146;BME280;65909;49.422;7.738;2023-03-31T06:49:40;75178.59;;;-145.25;100.00
54146;BME280;65909;49.422;7.738;2023-03-31T06:52:06;75154.53;;;-145.25;100.00
54146;BME280;65909;49.422;7.738;2023-03-31T06:54:31;75164.56;;;-145.25;100.00
54146;BME280;65909;49.422;7.738;2023-03-31T06:56:57;75154.53;;;-145.25;100.00
54146;BME280;65909;49.422;7.738;2023-03-31T06:59:22;75150.53;;;-145.25;100.00
54146;BME280;65909;49.422;7.738;2023-03-31T07:01:47;75152.53;;;-145.25;100.00
54146;BME280;65909;49.422;7.738;2023-03-31T07:04:14;75164.56;;;-145.25;100.00
54146;BME280;65909;49.422;7.738;2023-03-31T07:06:40;75156.53;;;-145.25;100.00
54146;BME280;65909;49.422;7.738;2023-03-31T07:09:05;75164.56;;;-145.25;100.00
54146;BME280;65909;49.422;7.738;2023-03-31T07:11:31;75150.53;;;-145.25;100.00
54146;BME280;65909;49.422;7.738;2023-03-31T07:13:56;75134.50;;;-145.25;100.00
54146;BME280;65909;49.422;7.738;2023-03-31T07:16:21;75122.47;;;-145.25;100.00
54146;BME280;65909;49.422;7.738;2023-03-31T07:18:47;75142.50;;;-145.25;100.00
54146;BME280;65909;49.422;7.738;2023-03-31T07:21:14;75134.50;;;-145.25;100.00
54146;BME280;65909;49.422;7.738;2023-03-31T07:23:40;75146.50;;;-145.25;100.00
54146;BME280;65909;49.422;7.738;2023-03-31T07:26:06;75138.50;;;-145.25;100.00
54146;BME280;65909;49.422;7.738;2023-03-31T07:28:31;75126.47;;;-145.25;100.00
54146;BME280;65909;49.422;7.738;2023-03-31T07:30:57;75138.50;;;-145.25;100.00
54146;BME280;65909;49.422;7.738;2023-03-31T07:33:22;75136.50;;;-145.25;100.00
54146;BME280;65909;49.422;7.738;2023-03-31T07:35:47;75124.47;;;-145.25;100.00
54146;BME280;65909;49.422;7.738;2023-03-31T07:38:13;75128.47;;;-145.25;100.00
54146;BME280;65909;49.422;7.738;2023-03-31T07:40:39;75136.50;;;-145.25;100.00
54146;BME280;65909;49.422;7.738;2023-03-31T07:43:06;75120.47;;;-145.25;100.00
54146;BME280;65909;49.422;7.738;2023-03-31T07:45:32;75138.50;;;-145.25;100.00
54146;BME280;65909;49.422;7.738;2023-03-31T07:47:58;75124.47;;;-145.25;100.00
54146;BME280;65909;49.422;7.738;2023-03-31T07:50:23;75132.47;;;-145.25;100.00
54146;BME280;65909;49.422;7.738;2023-03-31T07:52:50;75128.47;;;-145.25;100.00
54146;BME280;65909;49.422;7.738;2023-03-31T07:55:16;75114.44;;;-145.25;100.00
54146;BME280;65909;49.422;7.738;2023-03-31T07:57:42;75120.47;;;-145.25;100.00
54146;BME280;65909;49.422;7.738;2023-03-31T08:00:08;75106.44;;;-145.25;100.00
54146;BME280;65909;49.422;7.738;2023-03-31T08:02:36;75102.41;;;-145.25;100.00
54146;BME280;65909;49.422;7.738;2023-03-31T08:05:02;75086.38;;;-145.25;100.00
54146;BME280;65909;49.422;7.738;2023-03-31T08:07:28;75064.34;;;-145.25;100.00
54146;BME280;65909;49.422;7.738;2023-03-31T08:09:55;75062.34;;;-145.25;100.00
54146;BME280;65909;49.422;7.738;2023-03-31T08:12:21;75062.34;;;-145.25;100.00
54146;BME280;65909;49.422;7.738;2023-03-31T08:14:46;75036.28;;;-145.25;100.00
54146;BME280;65909;49.422;7.738;2023-03-31T08:17:12;75024.25;;;-145.25;100.00
54146;BME280;65909;49.422;7.738;2023-03-31T08:19:37;75044.31;;;-145.25;100.00
54146;BME280;65909;49.422;7.738;2023-03-31T08:22:02;75046.31;;;-145.25;100.00
54146;BME280;65909;49.422;7.738;2023-03-31T08:24:28;75040.28;;;-145.25;100.00
54146;BME280;65909;49.422;7.738;2023-03-31T08:26:53;75026.25;;;-145.25;100.00
54146;BME280;65909;49.422;7.738;2023-03-31T08:29:19;75002.22;;;-145.25;100.00
54146;BME280;65909;49.422;7.738;2023-03-31T08:31:44;74793.78;;;-145.25;96.67
54146;BME280;65909;49.422;7.738;2023-03-31T08:34:09;74637.47;;;-145.25;89.95
54146;BME280;65909;49.422;7.738;2023-03-31T08:36:35;74595.41;;;-145.25;87.23
54146;BME280;65909;49.422;7.738;2023-03-31T08:39:00;74571.34;;;-145.25;83.44
54146;BME280;65909;49.422;7.738;2023-03-31T08:41:56;74593.38;;;-145.25;84.59
54146;BME280;65909;49.422;7.738;2023-03-31T08:44:32;74525.25;;;-145.25;84.95
54146;BME280;65909;49.422;7.738;2023-03-31T08:47:00;74437.09;;;-145.25;75.38
54146;BME280;65909;49.422;7.738;2023-03-31T08:49:32;74613.44;;;-145.25;80.33
54146;BME280;65909;49.422;7.738;2023-03-31T08:52:04;74705.63;;;-145.25;84.21
54146;BME280;65909;49.422;7.738;2023-03-31T08:54:37;74755.72;;;-145.25;85.53
54146;BME280;65909;49.422;7.738;2023-03-31T08:57:11;74779.75;;;-145.25;84.54
54146;BME280;65909;49.422;7.738;2023-03-31T08:59:39;74807.81;;;-145.25;85.93
54146;BME280;65909;49.422;7.738;2023-03-31T09:02:28;74821.84;;;-145.25;87.56
54146;BME280;65909;49.422;7.738;2023-03-31T09:05:21;74833.88;;;-145.25;87.72
54146;BME280;65909;49.422;7.738;2023-03-31T09:10:55;74837.88;;;-145.25;88.25
54146;BME280;65909;49.422;7.738;2023-03-31T09:13:42;74817.84;;;-145.25;88.30
54146;BME280;65909;49.422;7.738;2023-03-31T09:16:20;74817.84;;;-145.25;85.44
54146;BME280;65909;49.422;7.738;2023-03-31T09:18:49;74805.81;;;-145.25;85.05
54146;BME280;65909;49.422;7.738;2023-03-31T09:21:39;74793.78;;;-145.25;85.71
54146;BME280;65909;49.422;7.738;2023-03-31T09:24:23;74769.75;;;-145.25;82.98
54146;BME280;65909;49.422;7.738;2023-03-31T09:26:55;74733.66;;;-145.25;82.49
54146;BME280;65909;49.422;7.738;2023-03-31T09:30:01;74771.75;;;-145.25;84.21
54146;BME280;65909;49.422;7.738;2023-03-31T09:32:30;74643.50;;;-145.25;81.75
54146;BME280;65909;49.422;7.738;2023-03-31T09:35:01;74683.56;;;-145.25;80.79
54146;BME280;65909;49.422;7.738;2023-03-31T09:37:36;74717.63;;;-145.25;82.18
54146;BME280;65909;49.422;7.738;2023-03-31T09:40:03;74729.66;;;-145.25;82.62
54146;BME280;65909;49.422;7.738;2023-03-31T09:42:35;74609.41;;;-145.25;78.91
54146;BME280;65909;49.422;7.738;2023-03-31T09:45:01;74665.53;;;-145.25;78.16
54146;BME280;65909;49.422;7.738;2023-03-31T09:50:20;74657.53;;;-145.25;76.43
54146;BME280;65909;49.422;7.738;2023-03-31T09:52:55;74703.59;;;-145.25;78.13
54146;BME280;65909;49.422;7.738;2023-03-31T09:55:25;74687.56;;;-145.25;78.72
54146;BME280;65909;49.422;7.738;2023-03-31T09:57:52;74711.63;;;-145.25;80.00
54146;BME280;65909;49.422;7.738;2023-03-31T10:00:21;74709.63;;;-145.25;79.80
54146;BME280;65909;49.422;7.738;2023-03-31T10:02:51;74711.63;;;-145.25;79.91
54146;BME280;65909;49.422;7.738;2023-03-31T10:05:27;74717.63;;;-145.25;82.17
54146;BME280;65909;49.422;7.738;2023-03-31T10:08:17;74717.63;;;-145.25;86.15
54146;BME280;65909;49.422;7.738;2023-03-31T10:10:52;74719.63;;;-145.25;85.76
54146;BME280;65909;49.422;7.738;2023-03-31T10:13:25;74657.53;;;-145.25;86.58
54146;BME280;65909;49.422;7.738;2023-03-31T10:16:00;74623.44;;;-145.25;81.39
54146;BME280;65909;49.422;7.738;2023-03-31T10:18:37;74613.44;;;-145.25;82.02
54146;BME280;65909;49.422;7.738;2023-03-31T10:21:05;74647.50;;;-145.25;79.21
54146;BME280;65909;49.422;7.738;2023-03-31T10:23:33;74663.53;;;-145.25;78.34
54146;BME280;65909;49.422;7.738;2023-03-31T10:26:00;74661.53;;;-145.25;81.04
54146;BME280;65909;49.422;7.738;2023-03-31T10:28:30;74671.53;;;-145.25;82.04
54146;BME280;65909;49.422;7.738;2023-03-31T10:30:57;74669.53;;;-145.25;81.26
54146;BME280;65909;49.422;7.738;2023-03-31T10:33:26;74673.56;;;-145.25;80.71
54146;BME280;65909;49.422;7.738;2023-03-31T10:35:58;74683.56;;;-145.25;80.27
54146;BME280;65909;49.422;7.738;2023-03-31T10:38:26;74709.63;;;-145.25;78.95
54146;BME280;65909;49.422;7.738;2023-03-31T10:40:55;74783.78;;;-145.25;87.96
54146;BME280;65909;49.422;7.738;2023-03-31T10:43:28;74877.97;;;-145.25;87.41
54146;BME280;65909;49.422;7.738;2023-03-31T10:45:56;74986.19;;;-145.25;90.57
54146;BME280;65909;49.422;7.738;2023-03-31T10:48:35;75006.22;;;-145.25;92.99
54146;BME280;65909;49.422;7.738;2023-03-31T10:51:10;75046.31;;;-145.25;92.33
54146;BME280;65909;49.422;7.738;2023-03-31T10:53:55;75056.31;;;-145.25;90.99
54146;BME280;65909;49.422;7.738;2023-03-31T10:56:42;75066.34;;;-145.25;91.35
54146;BME280;65909;49.422;7.738;2023-03-31T10:59:40;75060.34;;;-145.25;90.75
54146;BME280;65909;49.422;7.738;2023-03-31T11:02:21;75046.31;;;-145.25;90.17
54146;BME280;65909;49.422;7.738;2023-03-31T11:07:44;75010.22;;;-145.25;91.12
54146;BME280;65909;49.422;7.738;2023-03-31T11:16:23;74948.09;;;-145.25;90.20
54146;BME280;65909;49.422;7.738;2023-03-31T11:29:32;74707.63;;;-145.25;82.64
54146;BME280;65909;49.422;7.738;2023-03-31T11:41:09;74591.38;;;-145.25;74.88
54146;BME280;65909;49.422;7.738;2023-03-31T11:43:42;74601.41;;;-145.25;74.98
54146;BME280;65909;49.422;7.738;2023-03-31T11:49:05;74613.44;;;-145.25;74.20
54146;BME280;65909;49.422;7.738;2023-03-31T11:51:52;74625.44;;;-145.25;74.48
54146;BME280;65909;49.422;7.738;2023-03-31T11:54:35;74593.38;;;-145.25;71.10
54146;BME280;65909;49.422;7.738;2023-03-31T11:57:09;74519.25;;;-145.25;71.55
54146;BME280;65909;49.422;7.738;2023-03-31T11:59:39;74501.22;;;-145.25;70.09
54146;BME280;65909;49.422;7.738;2023-03-31T12:02:15;74519.25;;;-145.25;68.46
54146;BME280;65909;49.422;7.738;2023-03-31T12:04:45;74553.31;;;-145.25;69.66
54146;BME280;65909;49.422;7.738;2023-03-31T12:07:29;74501.22;;;-145.25;71.42
54146;BME280;65909;49.422;7.738;2023-03-31T12:10:16;74425.06;;;-145.25;70.86
54146;BME280;65909;49.422;7.738;2023-03-31T12:12:48;74374.97;;;-145.25;68.54
54146;BME280;65909;49.422;7.738;2023-03-31T12:15:22;74387.00;;;-145.25;66.69
54146;BME280;65909;49.422;7.738;2023-03-31T12:17:56;74413.03;;;-145.25;68.53
54146;BME280;65909;49.422;7.738;2023-03-31T12:20:38;74376.97;;;-145.25;68.28
54146;BME280;65909;49.422;7.738;2023-03-31T12:23:11;74393.00;;;-145.25;68.15
54146;BME280;65909;49.422;7.738;2023-03-31T12:25:51;74441.09;;;-145.25;67.01
54146;BME280;65909;49.422;7.738;2023-03-31T12:28:21;74473.16;;;-145.25;68.84
54146;BME280;65909;49.422;7.738;2023-03-31T12:30:48;74497.19;;;-145.25;69.23
54146;BME280;65909;49.422;7.738;2023-03-31T12:33:18;74537.28;;;-145.25;74.28
54146;BME280;65909;49.422;7.738;2023-03-31T12:41:18;74671.53;;;-145.25;84.55
54146;BME280;65909;49.422;7.738;2023-03-31T12:49:30;74675.56;;;-145.25;78.47
54146;BME280;65909;49.422;7.738;2023-03-31T12:54:48;74667.53;;;-145.25;75.75
54146;BME280;65909;49.422;7.738;2023-03-31T12:57:21;74669.53;;;-145.25;73.54
54146;BME280;65909;49.422;7.738;2023-03-31T13:02:49;74671.53;;;-145.25;75.12
54146;BME280;65909;49.422;7.738;2023-03-31T13:08:07;74613.44;;;-145.25;75.21
54146;BME280;65909;49.422;7.738;2023-03-31T13:10:53;74545.28;;;-145.25;72.54
54146;BME280;65909;49.422;7.738;2023-03-31T13:13:20;74465.13;;;-145.25;72.60
54146;BME280;65909;49.422;7.738;2023-03-31T13:15:54;74385.00;;;-145.25;65.68
54146;BME280;65909;49.422;7.738;2023-03-31T13:18:20;74413.03;;;-145.25;67.73
54146;BME280;65909;49.422;7.738;2023-03-31T13:20:57;74366.94;;;-145.25;68.02
54146;BME280;65909;49.422;7.738;2023-03-31T13:23:24;74382.97;;;-145.25;67.21
54146;BME280;65909;49.422;7.738;2023-03-31T13:25:56;74389.00;;;-145.25;67.72
54146;BME280;65909;49.422;7.738;2023-03-31T13:30:56;74320.88;;;-145.25;67.13
54146;BME280;65909;49.422;7.738;2023-03-31T13:39:25;74376.97;;;-145.25;67.51
54146;BME280;65909;49.422;7.738;2023-03-31T13:42:23;74328.88;;;-145.25;68.48
54146;BME280;65909;49.422;7.738;2023-03-31T13:45:43;74270.78;;;-145.25;64.75
54146;BME280;65909;49.422;7.738;2023-03-31T13:48:17;74274.78;;;-145.25;66.53
54146;BME280;65909;49.422;7.738;2023-03-31T13:59:12;74222.69;;;-145.25;60.95
54146;BME280;65909;49.422;7.738;2023-03-31T14:07:31;74292.81;;;-145.25;57.73
54146;BME280;65909;49.422;7.738;2023-03-31T14:09:57;74276.78;;;-145.25;55.86
54146;BME280;65909;49.422;7.738;2023-03-31T14:12:37;74296.81;;;-145.25;55.89
54146;BME280;65909;49.422;7.738;2023-03-31T14:15:03;74268.78;;;-145.25;54.59
54146;BME280;65909;49.422;7.738;2023-03-31T14:17:32;74300.84;;;-145.25;55.29
54146;BME280;65909;49.422;7.738;2023-03-31T14:22:59;74334.91;;;-145.25;55.63
54146;BME280;65909;49.422;7.738;2023-03-31T14:28:33;74382.97;;;-145.25;56.56
54146;BME280;65909;49.422;7.738;2023-03-31T14:37:03;74415.03;;;-145.25;58.34
54146;BME280;65909;49.422;7.738;2023-03-31T14:39:34;74389.00;;;-145.25;59.30
54146;BME280;65909;49.422;7.738;2023-03-31T14:42:09;74376.97;;;-145.25;59.91
54146;BME280;65909;49.422;7.738;2023-03-31T14:44:36;74387.00;;;-145.25;60.50
54146;BME280;65909;49.422;7.738;2023-03-31T14:47:02;74378.97;;;-145.25;59.78
54146;BME280;65909;49.422;7.738;2023-03-31T14:49:37;74376.97;;;-145.25;59.87